createdAt,value
2019-02-24T00:00:04.255Z,8.37
2019-02-24T00:02:33.401Z,8.33
2019-02-24T00:05:02.467Z,7.93
2019-02-24T00:07:31.555Z,8.00
2019-02-24T00:10:00.623Z,7.50
2019-02-24T00:12:29.740Z,7.63
2019-02-24T00:14:58.825Z,7.13
2019-02-24T00:17:28.024Z,7.53
2019-02-24T00:19:57.074Z,7.50
2019-02-24T00:22:26.176Z,7.50
2019-02-24T00:24:55.287Z,7.20
2019-02-24T00:27:24.434Z,7.43
2019-02-24T00:29:53.483Z,7.70
2019-02-24T00:32:22.577Z,7.93
2019-02-24T00:34:51.658Z,6.50
2019-02-24T00:37:20.746Z,7.23
2019-02-24T00:39:49.971Z,7.73
2019-02-24T00:42:19.105Z,6.40
2019-02-24T00:44:48.181Z,7.10
2019-02-24T00:47:17.358Z,6.27
2019-02-24T00:49:46.448Z,6.27
2019-02-24T00:52:15.506Z,5.20
2019-02-24T00:54:44.579Z,6.00
2019-02-24T00:57:13.706Z,5.93
2019-02-24T00:59:42.802Z,6.13
2019-02-24T01:02:11.917Z,6.87
2019-02-24T01:04:40.972Z,5.97
2019-02-24T01:07:10.029Z,6.43
2019-02-24T01:09:39.506Z,6.37
2019-02-24T01:12:08.552Z,6.67
2019-02-24T01:14:37.654Z,6.60
2019-02-24T01:17:06.718Z,5.70
2019-02-24T01:19:35.791Z,6.00
2019-02-24T01:22:04.895Z,5.90
2019-02-24T01:24:33.939Z,6.60
2019-02-24T01:27:03.044Z,6.33
2019-02-24T01:29:32.114Z,6.00
2019-02-24T01:32:01.179Z,6.00
2019-02-24T01:34:30.275Z,6.10
2019-02-24T01:36:59.350Z,5.43
2019-02-24T01:39:28.399Z,5.57
2019-02-24T01:41:57.457Z,5.97
2019-02-24T01:44:26.582Z,5.87
2019-02-24T01:46:55.644Z,6.13
2019-02-24T01:49:24.717Z,5.30
2019-02-24T01:51:53.787Z,5.93
2019-02-24T01:54:22.841Z,6.30
2019-02-24T01:56:51.869Z,6.10
2019-02-24T01:59:20.937Z,6.13
2019-02-24T02:01:49.978Z,6.10
2019-02-24T02:04:19.028Z,6.87
2019-02-24T02:06:48.097Z,6.10
2019-02-24T02:09:17.248Z,6.53
2019-02-24T02:11:46.309Z,5.63
2019-02-24T02:14:15.364Z,5.53
2019-02-24T02:16:44.418Z,6.03
2019-02-24T02:19:13.454Z,6.53
2019-02-24T02:21:42.500Z,6.13
2019-02-24T02:24:11.582Z,5.77
2019-02-24T02:26:40.631Z,5.63
2019-02-24T02:29:09.709Z,5.77
2019-02-24T02:31:38.761Z,5.17
2019-02-24T02:34:07.811Z,5.33
2019-02-24T02:36:36.876Z,5.63
2019-02-24T02:39:06.013Z,5.60
2019-02-24T02:41:35.060Z,5.50
2019-02-24T02:44:04.171Z,5.50
2019-02-24T02:46:33.225Z,5.60
2019-02-24T02:49:04.448Z,5.23
2019-02-24T02:51:33.112Z,5.50
2019-02-24T02:54:02.244Z,5.27
2019-02-24T02:56:31.261Z,5.73
2019-02-24T02:59:00.383Z,5.07
2019-02-24T03:01:29.455Z,5.17
2019-02-24T03:03:58.547Z,5.67
2019-02-24T03:06:41.412Z,6.00
2019-02-24T03:09:12.254Z,4.83
2019-02-24T03:11:41.281Z,5.63
2019-02-24T03:14:10.393Z,5.20
2019-02-24T03:16:39.468Z,5.13
2019-02-24T03:19:08.572Z,4.73
2019-02-24T03:21:37.691Z,4.80
2019-02-24T03:24:06.814Z,4.97
2019-02-24T03:26:35.925Z,5.23
2019-02-24T03:29:05.030Z,5.60
2019-02-24T03:31:34.156Z,5.40
2019-02-24T03:34:03.265Z,5.83
2019-02-24T03:36:32.329Z,5.63
2019-02-24T03:39:01.427Z,5.87
2019-02-24T03:41:30.560Z,4.93
2019-02-24T03:43:59.711Z,4.57
2019-02-24T03:46:28.781Z,6.17
2019-02-24T03:48:57.963Z,5.77
2019-02-24T03:51:27.019Z,4.70
2019-02-24T03:53:56.105Z,5.93
2019-02-24T03:56:25.203Z,4.97
2019-02-24T03:58:54.358Z,5.47
2019-02-24T04:01:23.404Z,5.87
2019-02-24T04:03:52.548Z,5.57
2019-02-24T04:06:21.612Z,5.60
2019-02-24T04:08:50.693Z,5.20
2019-02-24T04:11:19.797Z,5.43
2019-02-24T04:13:48.947Z,5.70
2019-02-24T04:16:18.038Z,5.67
2019-02-24T04:18:47.084Z,5.50
2019-02-24T04:21:16.137Z,5.20
2019-02-24T04:23:45.279Z,4.73
2019-02-24T04:26:14.390Z,5.93
2019-02-24T04:28:43.490Z,4.60
2019-02-24T04:31:12.532Z,5.17
2019-02-24T04:33:41.604Z,5.80
2019-02-24T04:36:10.775Z,5.07
2019-02-24T04:38:39.841Z,5.60
2019-02-24T04:41:08.976Z,5.00
2019-02-24T04:43:38.108Z,4.50
2019-02-24T04:46:07.210Z,5.23
2019-02-24T04:48:36.457Z,5.50
2019-02-24T04:51:05.526Z,5.47
2019-02-24T04:53:34.618Z,5.83
2019-02-24T04:56:03.736Z,5.60
2019-02-24T04:58:32.863Z,5.07
2019-02-24T05:01:01.952Z,5.20
2019-02-24T05:03:31.036Z,4.67
2019-02-24T05:06:00.099Z,4.73
2019-02-24T05:08:29.247Z,5.30
2019-02-24T05:10:58.373Z,5.30
2019-02-24T05:13:27.428Z,5.30
2019-02-24T05:15:56.551Z,4.73
2019-02-24T05:18:25.639Z,5.53
2019-02-24T05:20:54.797Z,6.00
2019-02-24T05:23:23.907Z,5.30
2019-02-24T05:25:52.989Z,5.20
2019-02-24T05:28:22.073Z,5.50
2019-02-24T05:30:51.201Z,5.03
2019-02-24T05:33:20.299Z,4.93
2019-02-24T05:35:49.568Z,5.57
2019-02-24T05:38:18.694Z,4.60
2019-02-24T05:40:47.837Z,5.30
2019-02-24T05:43:16.974Z,5.23
2019-02-24T05:45:46.063Z,5.20
2019-02-24T05:48:15.095Z,5.33
2019-02-24T05:50:44.260Z,5.40
2019-02-24T05:53:13.331Z,4.97
2019-02-24T05:55:42.463Z,5.10
2019-02-24T05:58:11.523Z,5.13
2019-02-24T06:00:40.662Z,5.80
2019-02-24T06:03:09.788Z,6.10
2019-02-24T06:05:38.942Z,5.40
2019-02-24T06:08:07.991Z,5.60
2019-02-24T06:10:37.053Z,5.27
2019-02-24T06:13:06.096Z,5.50
2019-02-24T06:15:35.196Z,4.47
2019-02-24T06:18:04.246Z,4.93
2019-02-24T06:20:33.419Z,5.13
2019-02-24T06:23:02.607Z,5.37
2019-02-24T06:25:31.798Z,5.53
2019-02-24T06:28:00.924Z,5.67
2019-02-24T06:30:30.041Z,4.97
2019-02-24T06:32:59.179Z,5.50
2019-02-24T06:35:28.333Z,5.50
2019-02-24T06:37:57.462Z,5.60
2019-02-24T06:40:26.680Z,5.00
2019-02-24T06:42:55.765Z,5.53
2019-02-24T06:45:24.905Z,5.97
2019-02-24T06:47:54.134Z,4.63
2019-02-24T06:50:23.322Z,5.70
2019-02-24T06:52:52.400Z,5.33
2019-02-24T06:55:21.540Z,5.43
2019-02-24T06:57:50.623Z,5.20
2019-02-24T07:00:19.691Z,5.30
2019-02-24T07:02:48.826Z,5.37
2019-02-24T07:05:17.925Z,5.47
2019-02-24T07:07:47.055Z,5.70
2019-02-24T07:10:16.114Z,6.23
2019-02-24T07:12:45.257Z,6.70
2019-02-24T07:15:14.370Z,5.23
2019-02-24T07:17:43.497Z,6.53
2019-02-24T07:20:12.689Z,5.70
2019-02-24T07:22:41.853Z,6.87
2019-02-24T07:25:10.991Z,6.53
2019-02-24T07:27:40.144Z,6.47
2019-02-24T07:30:09.552Z,5.50
2019-02-24T07:32:38.678Z,6.67
2019-02-24T07:35:07.839Z,6.57
2019-02-24T07:37:36.979Z,5.70
2019-02-24T07:40:06.089Z,5.47
2019-02-24T07:42:35.208Z,5.57
2019-02-24T07:45:04.385Z,5.20
2019-02-24T07:47:33.454Z,5.73
2019-02-24T07:50:02.534Z,5.23
2019-02-24T07:52:31.626Z,5.67
2019-02-24T07:55:00.699Z,4.87
2019-02-24T07:57:29.818Z,5.23
2019-02-24T07:59:58.923Z,4.83
2019-02-24T08:02:27.987Z,5.53
2019-02-24T08:04:57.075Z,5.97
2019-02-24T08:07:26.180Z,5.10
2019-02-24T08:09:55.314Z,5.40
2019-02-24T08:12:24.384Z,4.80
2019-02-24T08:14:53.549Z,5.33
2019-02-24T08:17:22.620Z,6.47
2019-02-24T08:19:52.020Z,5.63
2019-02-24T08:22:21.133Z,5.33
2019-02-24T08:24:50.243Z,5.00
2019-02-24T08:27:19.369Z,4.20
2019-02-24T08:29:48.548Z,3.83
2019-02-24T08:32:17.674Z,3.70
2019-02-24T08:34:46.842Z,3.80
2019-02-24T08:37:15.938Z,3.47
2019-02-24T08:39:45.124Z,3.57
2019-02-24T08:42:14.204Z,3.30
2019-02-24T08:44:43.312Z,3.20
2019-02-24T08:47:12.413Z,4.03
2019-02-24T08:49:41.533Z,3.33
2019-02-24T08:52:10.641Z,3.10
2019-02-24T08:54:39.705Z,3.93
2019-02-24T08:57:08.831Z,3.40
2019-02-24T08:59:38.398Z,3.53
2019-02-24T09:02:07.602Z,3.67
2019-02-24T09:04:36.722Z,3.93
2019-02-24T09:07:05.921Z,3.60
2019-02-24T09:09:35.010Z,3.60
2019-02-24T09:12:04.114Z,3.13
2019-02-24T09:14:33.179Z,3.53
2019-02-24T09:17:02.349Z,3.47
2019-02-24T09:19:31.457Z,3.20
2019-02-24T09:22:00.641Z,3.57
2019-02-24T09:24:30.127Z,3.23
2019-02-24T09:26:59.485Z,3.70
2019-02-24T09:29:28.841Z,3.30
2019-02-24T09:31:58.000Z,3.72
2019-02-24T09:34:27.074Z,2.58
2019-02-24T09:36:56.514Z,3.20
2019-02-24T09:39:25.881Z,3.20
2019-02-24T09:41:54.986Z,2.83
2019-02-24T09:44:24.039Z,3.05
2019-02-24T09:46:53.134Z,3.58
2019-02-24T09:49:22.178Z,3.37
2019-02-24T09:51:52.365Z,3.10
2019-02-24T09:54:21.526Z,2.85
2019-02-24T09:56:50.675Z,3.15
2019-02-24T09:59:19.759Z,3.12
2019-02-24T10:01:48.906Z,3.00
2019-02-24T10:04:17.939Z,2.87
2019-02-24T10:06:47.067Z,3.05
2019-02-24T10:09:16.117Z,2.87
2019-02-24T10:11:46.924Z,2.87
2019-02-24T10:14:16.041Z,2.50
2019-02-24T10:16:45.179Z,2.40
2019-02-24T10:19:14.248Z,2.75
2019-02-24T10:21:43.424Z,3.70
2019-02-24T10:24:12.548Z,2.87
2019-02-24T10:26:41.630Z,2.83
2019-02-24T10:29:10.697Z,2.47
2019-02-24T10:31:39.822Z,2.47
2019-02-24T10:34:09.517Z,2.60
2019-02-24T10:36:38.625Z,2.90
2019-02-24T10:39:10.375Z,2.17
2019-02-24T10:41:39.473Z,3.00
2019-02-24T10:44:08.551Z,2.98
2019-02-24T10:46:37.772Z,2.50
2019-02-24T10:49:06.882Z,2.30
2019-02-24T10:51:35.958Z,1.90
2019-02-24T10:54:05.033Z,2.22
2019-02-24T10:56:34.110Z,2.17
2019-02-24T10:59:03.250Z,2.35
2019-02-24T11:01:32.331Z,2.10
2019-02-24T11:04:01.448Z,1.90
2019-02-24T11:06:30.553Z,1.80
2019-02-24T11:08:59.667Z,1.92
2019-02-24T11:11:28.789Z,1.70
2019-02-24T11:13:57.928Z,1.87
2019-02-24T11:16:27.056Z,1.65
2019-02-24T11:18:56.175Z,1.77
2019-02-24T11:21:25.370Z,1.70
2019-02-24T11:23:54.495Z,1.60
2019-02-24T11:26:23.660Z,1.82
2019-02-24T11:28:52.896Z,1.40
2019-02-24T11:31:22.059Z,1.40
2019-02-24T11:33:51.192Z,1.50
2019-02-24T11:36:20.318Z,1.90
2019-02-24T11:38:49.552Z,1.75
2019-02-24T11:41:18.763Z,1.45
2019-02-24T11:43:48.047Z,1.82
2019-02-24T11:46:17.236Z,1.75
2019-02-24T11:48:46.477Z,2.87
2019-02-24T11:51:15.703Z,1.90
2019-02-24T11:53:44.935Z,1.70
2019-02-24T11:56:14.058Z,1.50
2019-02-24T11:58:43.229Z,1.62
2019-02-24T12:01:12.453Z,1.90
2019-02-24T12:03:41.628Z,1.65
2019-02-24T12:06:10.892Z,8.28
2019-02-24T12:08:40.058Z,3.12
2019-02-24T12:11:09.167Z,5.55
2019-02-24T12:13:38.475Z,1.80
2019-02-24T12:16:07.633Z,1.62
2019-02-24T12:18:36.824Z,1.70
2019-02-24T12:21:05.965Z,1.72
2019-02-24T12:23:35.195Z,1.82
2019-02-24T12:26:04.292Z,4.17
2019-02-24T12:28:33.919Z,2.40
2019-02-24T12:31:03.321Z,3.20
2019-02-24T12:33:32.465Z,2.62
2019-02-24T12:36:01.669Z,2.00
2019-02-24T12:38:30.855Z,3.90
2019-02-24T12:41:00.005Z,2.67
2019-02-24T12:43:29.141Z,2.17
2019-02-24T12:45:58.341Z,2.37
2019-02-24T12:48:27.560Z,4.28
2019-02-24T12:50:56.680Z,2.20
2019-02-24T12:53:27.526Z,2.10
2019-02-24T12:55:56.821Z,4.10
2019-02-24T12:58:26.091Z,4.40
2019-02-24T13:00:55.288Z,6.15
2019-02-24T13:03:24.484Z,8.00
2019-02-24T13:05:53.694Z,10.17
2019-02-24T13:08:22.890Z,6.03
2019-02-24T13:10:52.017Z,2.17
2019-02-24T13:13:21.107Z,3.77
2019-02-24T13:15:50.282Z,2.83
2019-02-24T13:18:19.538Z,2.20
2019-02-24T13:20:48.603Z,2.30
2019-02-24T13:23:17.895Z,1.50
2019-02-24T13:25:47.080Z,1.60
2019-02-24T13:28:16.221Z,1.70
2019-02-24T13:30:45.354Z,1.70
2019-02-24T13:33:14.480Z,1.70
2019-02-24T13:35:43.640Z,1.80
2019-02-24T13:38:12.762Z,2.10
2019-02-24T13:40:42.001Z,2.50
2019-02-24T13:43:11.069Z,3.67
2019-02-24T13:45:40.173Z,12.23
2019-02-24T13:48:09.853Z,1.90
2019-02-24T13:50:39.027Z,2.07
2019-02-24T13:53:08.148Z,1.90
2019-02-24T13:55:37.246Z,6.53
2019-02-24T13:58:06.427Z,1.90
2019-02-24T14:00:35.525Z,2.50
2019-02-24T14:03:04.625Z,1.43
2019-02-24T14:05:33.709Z,1.40
2019-02-24T14:08:02.888Z,1.97
2019-02-24T14:10:31.922Z,1.47
2019-02-24T14:13:01.035Z,2.20
2019-02-24T14:15:30.121Z,1.60
2019-02-24T14:17:59.241Z,2.30
2019-02-24T14:20:28.344Z,1.70
2019-02-24T14:22:57.495Z,1.50
2019-02-24T14:25:26.618Z,2.80
2019-02-24T14:27:55.755Z,4.63
2019-02-24T14:30:24.883Z,1.70
2019-02-24T14:32:53.965Z,4.57
2019-02-24T14:35:23.294Z,8.93
2019-02-24T14:37:52.480Z,3.77
2019-02-24T14:40:21.650Z,3.50
2019-02-24T14:42:50.862Z,2.10
2019-02-24T14:45:20.074Z,2.20
2019-02-24T14:47:49.231Z,1.83
2019-02-24T14:50:18.358Z,1.53
2019-02-24T14:52:47.566Z,1.60
2019-02-24T14:55:16.723Z,1.93
2019-02-24T14:57:45.845Z,3.10
2019-02-24T15:00:15.370Z,1.50
2019-02-24T15:02:44.538Z,1.60
2019-02-24T15:05:13.907Z,1.77
2019-02-24T15:07:42.989Z,7.53
2019-02-24T15:10:13.686Z,1.80
2019-02-24T15:12:42.897Z,3.33
2019-02-24T15:15:15.909Z,1.60
2019-02-24T15:17:45.059Z,3.50
2019-02-24T15:20:16.524Z,3.30
2019-02-24T15:22:45.619Z,7.07
2019-02-24T15:25:15.750Z,7.80
2019-02-24T15:27:44.912Z,2.13
2019-02-24T15:30:19.946Z,1.80
2019-02-24T15:32:51.625Z,1.80
2019-02-24T15:35:19.991Z,1.70
2019-02-24T15:37:49.109Z,1.47
2019-02-24T15:40:18.346Z,1.60
2019-02-24T15:42:47.538Z,1.60
2019-02-24T15:45:16.663Z,1.70
2019-02-24T15:47:45.828Z,2.87
2019-02-24T15:50:14.957Z,1.60
2019-02-24T15:52:44.138Z,1.70
2019-02-24T15:55:13.371Z,1.63
2019-02-24T15:57:42.535Z,1.60
2019-02-24T16:00:13.071Z,1.67
2019-02-24T16:02:42.244Z,1.60
2019-02-24T16:05:11.478Z,1.50
2019-02-24T16:07:40.564Z,1.60
2019-02-24T16:10:12.030Z,2.10
2019-02-24T16:12:41.207Z,1.60
2019-02-24T16:15:11.759Z,1.93
2019-02-24T16:17:40.905Z,1.70
2019-02-24T16:20:13.442Z,2.00
2019-02-24T16:22:42.504Z,1.50
2019-02-24T16:25:11.651Z,1.80
2019-02-24T16:27:40.915Z,2.00
2019-02-24T16:30:11.336Z,1.93
2019-02-24T16:32:40.480Z,1.80
2019-02-24T16:35:11.090Z,1.97
2019-02-24T16:37:40.256Z,2.13
2019-02-24T16:40:12.227Z,2.73
2019-02-24T16:42:42.548Z,2.67
2019-02-24T16:45:12.226Z,3.37
2019-02-24T16:47:41.344Z,7.77
2019-02-24T16:50:13.961Z,3.00
2019-02-24T16:52:43.125Z,2.60
2019-02-24T16:55:12.819Z,2.70
2019-02-24T16:57:42.142Z,2.63
2019-02-24T17:00:14.990Z,5.10
2019-02-24T17:02:44.247Z,3.07
2019-02-24T17:05:13.391Z,2.50
2019-02-24T17:07:42.545Z,4.83
2019-02-24T17:10:13.130Z,3.13
2019-02-24T17:12:42.288Z,2.73
2019-02-24T17:15:11.528Z,2.50
2019-02-24T17:17:40.694Z,2.53
2019-02-24T17:20:13.579Z,2.63
2019-02-24T17:22:42.888Z,2.20
2019-02-24T17:25:12.143Z,2.30
2019-02-24T17:27:41.302Z,2.40
2019-02-24T17:30:12.517Z,2.10
2019-02-24T17:32:41.753Z,2.60
2019-02-24T17:35:10.876Z,2.60
2019-02-24T17:37:39.981Z,2.40
2019-02-24T17:40:10.678Z,2.73
2019-02-24T17:42:40.626Z,2.63
2019-02-24T17:45:11.072Z,2.83
2019-02-24T17:47:40.184Z,3.47
2019-02-24T17:50:10.817Z,4.23
2019-02-24T17:52:39.982Z,5.50
2019-02-24T17:55:10.362Z,5.60
2019-02-24T17:57:39.602Z,6.67
2019-02-24T18:00:13.000Z,7.13
2019-02-24T18:02:42.215Z,8.17
2019-02-24T18:05:11.407Z,5.37
2019-02-24T18:07:40.491Z,5.90
2019-02-24T18:10:09.595Z,5.83
2019-02-24T18:12:38.711Z,4.73
2019-02-24T18:15:09.422Z,5.57
2019-02-24T18:17:38.595Z,4.73
2019-02-24T18:20:09.144Z,5.20
2019-02-24T18:22:38.221Z,5.40
2019-02-24T18:25:09.250Z,5.80
2019-02-24T18:27:38.359Z,5.17
2019-02-24T18:30:10.712Z,5.07
2019-02-24T18:32:39.816Z,5.57
2019-02-24T18:35:08.927Z,6.30
2019-02-24T18:37:38.069Z,5.63
2019-02-24T18:40:07.636Z,6.20
2019-02-24T18:42:36.819Z,6.30
2019-02-24T18:45:06.006Z,4.87
2019-02-24T18:47:35.190Z,5.83
2019-02-24T18:50:04.386Z,5.73
2019-02-24T18:52:33.531Z,5.93
2019-02-24T18:55:02.601Z,5.67
2019-02-24T18:57:31.811Z,5.00
2019-02-24T19:00:00.965Z,5.63
2019-02-24T19:02:30.078Z,7.67
2019-02-24T19:04:59.228Z,5.50
2019-02-24T19:07:28.373Z,6.03
2019-02-24T19:09:57.483Z,6.47
2019-02-24T19:12:26.679Z,6.20
2019-02-24T19:14:55.766Z,5.83
2019-02-24T19:17:24.909Z,5.90
2019-02-24T19:19:54.000Z,6.27
2019-02-24T19:22:23.177Z,6.80
2019-02-24T19:24:52.298Z,6.60
2019-02-24T19:27:21.444Z,6.60
2019-02-24T19:29:50.583Z,6.80
2019-02-24T19:32:19.718Z,6.47
2019-02-24T19:34:48.817Z,6.40
2019-02-24T19:37:17.983Z,7.30
2019-02-24T19:39:47.132Z,6.53
2019-02-24T19:42:16.271Z,6.27
2019-02-24T19:44:45.422Z,7.07
2019-02-24T19:47:14.547Z,5.93
2019-02-24T19:49:43.638Z,6.53
2019-02-24T19:52:12.791Z,5.93
2019-02-24T19:54:41.983Z,6.80
2019-02-24T19:57:11.129Z,8.20
2019-02-24T19:59:40.306Z,8.63
2019-02-24T20:02:09.442Z,6.83
2019-02-24T20:04:38.614Z,5.50
2019-02-24T20:07:07.681Z,5.97
2019-02-24T20:09:43.665Z,6.07
2019-02-24T20:12:12.796Z,5.50
2019-02-24T20:14:43.685Z,6.03
2019-02-24T20:17:12.798Z,5.20
2019-02-24T20:19:42.032Z,6.50
2019-02-24T20:22:11.088Z,6.70
2019-02-24T20:24:40.201Z,5.97
2019-02-24T20:27:09.301Z,6.43
2019-02-24T20:29:38.406Z,6.03
2019-02-24T20:32:07.487Z,6.07
2019-02-24T20:34:36.577Z,5.50
2019-02-24T20:37:05.709Z,5.77
2019-02-24T20:39:34.776Z,5.73
2019-02-24T20:42:03.872Z,5.30
2019-02-24T20:44:33.065Z,5.23
2019-02-24T20:47:02.139Z,5.80
2019-02-24T20:49:31.313Z,5.60
2019-02-24T20:52:00.396Z,5.00
2019-02-24T20:54:29.551Z,5.80
2019-02-24T20:56:58.654Z,6.03
2019-02-24T20:59:27.860Z,6.00
2019-02-24T21:01:56.954Z,6.67
2019-02-24T21:04:26.075Z,6.10
2019-02-24T21:06:55.143Z,12.47
2019-02-24T21:09:24.243Z,7.97
2019-02-24T21:11:53.359Z,7.10
2019-02-24T21:14:22.484Z,7.00
2019-02-24T21:16:51.594Z,7.30
2019-02-24T21:19:20.663Z,6.60
2019-02-24T21:21:49.788Z,6.53
2019-02-24T21:24:18.874Z,5.93
2019-02-24T21:26:47.955Z,6.87
2019-02-24T21:29:17.083Z,6.93
2019-02-24T21:31:46.132Z,6.43
2019-02-24T21:34:15.297Z,6.40
2019-02-24T21:36:44.376Z,6.53
2019-02-24T21:39:13.450Z,5.63
2019-02-24T21:41:42.486Z,6.50
2019-02-24T21:44:11.634Z,6.57
2019-02-24T21:46:40.678Z,7.20
2019-02-24T21:49:09.775Z,5.97
2019-02-24T21:51:38.827Z,6.90
2019-02-24T21:54:07.903Z,6.83
2019-02-24T21:56:37.014Z,6.30
2019-02-24T21:59:06.118Z,7.77
2019-02-24T22:01:35.182Z,6.20
2019-02-24T22:04:04.294Z,6.30
2019-02-24T22:06:33.353Z,6.73
2019-02-24T22:09:02.494Z,6.63
2019-02-24T22:11:31.558Z,6.03
2019-02-24T22:14:00.664Z,5.50
2019-02-24T22:16:29.732Z,5.87
2019-02-24T22:18:58.813Z,10.90
2019-02-24T22:21:27.911Z,5.90
2019-02-24T22:23:56.959Z,6.20
2019-02-24T22:26:26.023Z,6.50
2019-02-24T22:28:55.074Z,5.73
2019-02-24T22:31:24.187Z,6.47
2019-02-24T22:33:53.243Z,5.67
2019-02-24T22:36:22.315Z,6.20
2019-02-24T22:38:51.411Z,5.83
2019-02-24T22:41:20.529Z,6.20
2019-02-24T22:43:49.563Z,6.57
2019-02-24T22:46:18.646Z,6.27
2019-02-24T22:48:47.698Z,5.40
2019-02-24T22:51:17.628Z,5.67
2019-02-24T22:53:46.713Z,5.87
2019-02-24T22:56:15.819Z,5.57
2019-02-24T22:58:44.859Z,5.73
2019-02-24T23:01:19.892Z,5.30
2019-02-24T23:03:49.277Z,5.63
2019-02-24T23:06:18.393Z,6.37
2019-02-24T23:08:47.478Z,6.07
2019-02-24T23:11:16.746Z,6.33
2019-02-24T23:13:45.925Z,6.00
2019-02-24T23:16:14.958Z,6.03
2019-02-24T23:18:44.048Z,5.90
2019-02-24T23:21:13.215Z,4.90
2019-02-24T23:23:42.437Z,5.87
2019-02-24T23:26:11.682Z,6.23
2019-02-24T23:28:40.910Z,5.40
2019-02-24T23:31:10.089Z,5.83
2019-02-24T23:33:39.266Z,5.93
2019-02-24T23:36:08.544Z,6.30
2019-02-24T23:38:37.799Z,6.33
2019-02-24T23:41:07.149Z,5.93
2019-02-24T23:43:36.486Z,6.40
2019-02-24T23:46:05.717Z,6.07
2019-02-24T23:48:34.925Z,5.43
2019-02-24T23:51:04.124Z,6.07
2019-02-24T23:53:33.347Z,6.07
2019-02-24T23:56:02.596Z,6.20
2019-02-24T23:58:31.875Z,5.57
